sensor_id;sensor_type;location;lat;lon;timestamp;pressure;altitude;pressure_sealevel;temperature;humidity
40872;BME280;26591;43.264;26.940;2023-05-21T00:00:43;98778.06;;;17.81;59.43
40872;BME280;26591;43.264;26.940;2023-05-21T00:03:10;98771.88;;;17.62;59.73
40872;BME280;26591;43.264;26.940;2023-05-21T00:05:41;98774.19;;;17.51;60.57
40872;BME280;26591;43.264;26.940;2023-05-21T00:08:07;98772.13;;;17.53;60.85
40872;BME280;26591;43.264;26.940;2023-05-21T00:10:32;98776.06;;;17.51;60.35
40872;BME280;26591;43.264;26.940;2023-05-21T00:12:58;98770.75;;;17.44;60.93
40872;BME280;26591;43.264;26.940;2023-05-21T00:15:24;98765.34;;;17.51;60.72
40872;BME280;26591;43.264;26.940;2023-05-21T00:17:49;98764.19;;;17.40;61.10
40872;BME280;26591;43.264;26.940;2023-05-21T00:20:15;98763.59;;;17.38;61.53
40872;BME280;26591;43.264;26.940;2023-05-21T00:22:41;98764.53;;;17.50;60.79
40872;BME280;26591;43.264;26.940;2023-05-21T00:25:08;98768.13;;;17.37;60.94
40872;BME280;26591;43.264;26.940;2023-05-21T00:27:34;98758.03;;;17.39;61.70
40872;BME280;26591;43.264;26.940;2023-05-21T00:30:00;98759.31;;;17.30;61.72
40872;BME280;26591;43.264;26.940;2023-05-21T00:32:25;98751.19;;;17.18;62.34
40872;BME280;26591;43.264;26.940;2023-05-21T00:34:51;98751.63;;;17.15;62.30
40872;BME280;26591;43.264;26.940;2023-05-21T00:37:16;98757.63;;;17.11;62.15
40872;BME280;26591;43.264;26.940;2023-05-21T00:39:42;98741.97;;;17.14;62.26
40872;BME280;26591;43.264;26.940;2023-05-21T00:42:08;98745.28;;;17.10;62.20
40872;BME280;26591;43.264;26.940;2023-05-21T00:44:33;98746.56;;;17.00;62.37
40872;BME280;26591;43.264;26.940;2023-05-21T00:47:02;98741.50;;;17.24;61.67
40872;BME280;26591;43.264;26.940;2023-05-21T00:49:29;98743.19;;;17.18;62.06
40872;BME280;26591;43.264;26.940;2023-05-21T00:51:55;98735.25;;;17.05;62.01
40872;BME280;26591;43.264;26.940;2023-05-21T00:54:21;98741.22;;;16.93;62.28
40872;BME280;26591;43.264;26.940;2023-05-21T00:56:48;98739.81;;;16.91;62.49
40872;BME280;26591;43.264;26.940;2023-05-21T00:59:16;98736.28;;;17.04;62.46
40872;BME280;26591;43.264;26.940;2023-05-21T01:01:43;98734.00;;;17.07;62.05
40872;BME280;26591;43.264;26.940;2023-05-21T01:04:10;98732.06;;;16.83;62.76
40872;BME280;26591;43.264;26.940;2023-05-21T01:06:36;98737.88;;;16.73;62.80
40872;BME280;26591;43.264;26.940;2023-05-21T01:09:03;98726.75;;;16.76;63.53
40872;BME280;26591;43.264;26.940;2023-05-21T01:11:55;98724.59;;;16.53;63.70
40872;BME280;26591;43.264;26.940;2023-05-21T01:14:21;98725.53;;;16.72;63.26
40872;BME280;26591;43.264;26.940;2023-05-21T01:16:49;98721.19;;;16.77;63.29
40872;BME280;26591;43.264;26.940;2023-05-21T01:19:17;98714.88;;;16.65;63.39
40872;BME280;26591;43.264;26.940;2023-05-21T01:22:06;98716.75;;;16.58;63.41
40872;BME280;26591;43.264;26.940;2023-05-21T01:24:32;98714.50;;;16.61;63.29
40872;BME280;26591;43.264;26.940;2023-05-21T01:27:00;98719.69;;;16.50;63.71
40872;BME280;26591;43.264;26.940;2023-05-21T01:29:25;98717.59;;;16.58;63.05
40872;BME280;26591;43.264;26.940;2023-05-21T01:34:44;98713.09;;;16.52;63.31
40872;BME280;26591;43.264;26.940;2023-05-21T01:37:44;98707.47;;;16.67;62.58
40872;BME280;26591;43.264;26.940;2023-05-21T01:40:21;98704.84;;;16.60;62.78
40872;BME280;26591;43.264;26.940;2023-05-21T01:42:48;98706.09;;;16.51;63.14
40872;BME280;26591;43.264;26.940;2023-05-21T01:45:15;98699.38;;;16.42;63.20
40872;BME280;26591;43.264;26.940;2023-05-21T01:47:44;98707.75;;;16.52;63.62
40872;BME280;26591;43.264;26.940;2023-05-21T01:50:16;98699.00;;;16.38;63.97
40872;BME280;26591;43.264;26.940;2023-05-21T01:52:51;98699.44;;;16.28;64.20
40872;BME280;26591;43.264;26.940;2023-05-21T01:55:17;98698.41;;;16.29;64.04
40872;BME280;26591;43.264;26.940;2023-05-21T01:57:43;98701.50;;;16.26;63.68
40872;BME280;26591;43.264;26.940;2023-05-21T02:00:09;98692.84;;;16.31;64.31
40872;BME280;26591;43.264;26.940;2023-05-21T02:02:35;98701.91;;;16.23;64.57
40872;BME280;26591;43.264;26.940;2023-05-21T02:05:01;98698.44;;;16.23;64.01
40872;BME280;26591;43.264;26.940;2023-05-21T02:07:26;98700.91;;;16.17;64.99
40872;BME280;26591;43.264;26.940;2023-05-21T02:09:53;98697.19;;;16.25;64.18
40872;BME280;26591;43.264;26.940;2023-05-21T02:12:19;98700.09;;;16.17;64.97
40872;BME280;26591;43.264;26.940;2023-05-21T02:14:44;98699.66;;;16.20;65.01
40872;BME280;26591;43.264;26.940;2023-05-21T02:17:14;98698.03;;;16.12;64.70
40872;BME280;26591;43.264;26.940;2023-05-21T02:19:41;98697.22;;;16.19;64.51
40872;BME280;26591;43.264;26.940;2023-05-21T02:22:09;98698.31;;;15.97;65.32
40872;BME280;26591;43.264;26.940;2023-05-21T02:24:35;98698.31;;;15.97;65.87
40872;BME280;26591;43.264;26.940;2023-05-21T02:27:01;98704.91;;;15.95;65.97
40872;BME280;26591;43.264;26.940;2023-05-21T02:29:27;98697.03;;;16.07;66.03
40872;BME280;26591;43.264;26.940;2023-05-21T02:31:53;98698.09;;;15.92;65.76
40872;BME280;26591;43.264;26.940;2023-05-21T02:34:18;98701.38;;;15.94;65.95
40872;BME280;26591;43.264;26.940;2023-05-21T02:36:45;98694.19;;;15.81;66.64
40872;BME280;26591;43.264;26.940;2023-05-21T02:39:17;98699.13;;;15.98;65.98
40872;BME280;26591;43.264;26.940;2023-05-21T02:41:44;98698.69;;;16.01;66.17
40872;BME280;26591;43.264;26.940;2023-05-21T02:44:10;98700.78;;;15.92;66.22
40872;BME280;26591;43.264;26.940;2023-05-21T02:46:35;98702.81;;;15.97;65.93
40872;BME280;26591;43.264;26.940;2023-05-21T02:49:01;98708.38;;;15.95;66.74
40872;BME280;26591;43.264;26.940;2023-05-21T02:51:26;98711.25;;;15.94;66.17
40872;BME280;26591;43.264;26.940;2023-05-21T02:53:52;98704.69;;;15.90;66.53
40872;BME280;26591;43.264;26.940;2023-05-21T02:56:17;98705.31;;;15.85;66.32
40872;BME280;26591;43.264;26.940;2023-05-21T02:58:44;98709.63;;;15.93;65.96
40872;BME280;26591;43.264;26.940;2023-05-21T03:01:10;98712.47;;;15.91;66.61
40872;BME280;26591;43.264;26.940;2023-05-21T03:03:35;98716.00;;;15.85;66.97
40872;BME280;26591;43.264;26.940;2023-05-21T03:06:01;98711.28;;;15.87;66.88
40872;BME280;26591;43.264;26.940;2023-05-21T03:08:27;98704.25;;;16.06;66.24
40872;BME280;26591;43.264;26.940;2023-05-21T03:10:52;98709.69;;;16.31;66.27
40872;BME280;26591;43.264;26.940;2023-05-21T03:13:18;98714.56;;;16.41;65.76
40872;BME280;26591;43.264;26.940;2023-05-21T03:15:43;98708.09;;;16.62;65.33
40872;BME280;26591;43.264;26.940;2023-05-21T03:18:10;98707.59;;;16.79;64.22
40872;BME280;26591;43.264;26.940;2023-05-21T03:20:36;98711.44;;;16.97;64.02
40872;BME280;26591;43.264;26.940;2023-05-21T03:23:08;98719.44;;;17.29;63.68
40872;BME280;26591;43.264;26.940;2023-05-21T03:25:33;98718.47;;;17.48;62.19
40872;BME280;26591;43.264;26.940;2023-05-21T03:28:01;98720.63;;;17.58;61.70
40872;BME280;26591;43.264;26.940;2023-05-21T03:30:26;98718.72;;;17.65;61.90
40872;BME280;26591;43.264;26.940;2023-05-21T03:32:52;98715.50;;;18.19;60.76
40872;BME280;26591;43.264;26.940;2023-05-21T03:35:17;98718.25;;;18.50;59.61
40872;BME280;26591;43.264;26.940;2023-05-21T03:37:43;98725.16;;;18.88;58.43
40872;BME280;26591;43.264;26.940;2023-05-21T03:40:09;98720.94;;;19.11;57.90
40872;BME280;26591;43.264;26.940;2023-05-21T03:42:35;98720.75;;;19.48;56.90
40872;BME280;26591;43.264;26.940;2023-05-21T03:45:01;98717.72;;;19.68;56.10
40872;BME280;26591;43.264;26.940;2023-05-21T03:47:27;98724.84;;;20.10;55.71
40872;BME280;26591;43.264;26.940;2023-05-21T03:49:52;98718.78;;;20.55;53.72
40872;BME280;26591;43.264;26.940;2023-05-21T03:52:18;98717.34;;;21.11;53.21
40872;BME280;26591;43.264;26.940;2023-05-21T03:54:43;98722.03;;;21.32;52.15
40872;BME280;26591;43.264;26.940;2023-05-21T03:57:09;98708.31;;;21.34;52.10
40872;BME280;26591;43.264;26.940;2023-05-21T03:59:34;98714.38;;;21.75;51.20
40872;BME280;26591;43.264;26.940;2023-05-21T04:02:00;98716.16;;;22.09;50.02
40872;BME280;26591;43.264;26.940;2023-05-21T04:04:26;98717.19;;;22.47;49.40
40872;BME280;26591;43.264;26.940;2023-05-21T04:06:54;98713.84;;;23.17;48.65
40872;BME280;26591;43.264;26.940;2023-05-21T04:09:20;98708.09;;;23.41;46.37
40872;BME280;26591;43.264;26.940;2023-05-21T04:11:46;98715.69;;;23.44;46.40
40872;BME280;26591;43.264;26.940;2023-05-21T04:14:12;98723.06;;;23.54;45.58
40872;BME280;26591;43.264;26.940;2023-05-21T04:16:37;98709.88;;;23.62;45.94
40872;BME280;26591;43.264;26.940;2023-05-21T04:19:04;98707.88;;;23.90;44.57
40872;BME280;26591;43.264;26.940;2023-05-21T04:21:29;98721.34;;;24.28;43.94
40872;BME280;26591;43.264;26.940;2023-05-21T04:23:57;98709.28;;;24.62;42.98
40872;BME280;26591;43.264;26.940;2023-05-21T04:26:24;98715.56;;;24.83;41.89
40872;BME280;26591;43.264;26.940;2023-05-21T04:28:50;98717.22;;;25.25;41.15
40872;BME280;26591;43.264;26.940;2023-05-21T04:31:18;98720.44;;;25.84;40.47
40872;BME280;26591;43.264;26.940;2023-05-21T04:33:43;98720.72;;;25.88;39.78
40872;BME280;26591;43.264;26.940;2023-05-21T04:36:10;98714.25;;;25.68;39.46
40872;BME280;26591;43.264;26.940;2023-05-21T04:38:36;98730.78;;;25.20;41.53
40872;BME280;26591;43.264;26.940;2023-05-21T04:41:02;98725.78;;;24.65;41.56
40872;BME280;26591;43.264;26.940;2023-05-21T04:43:28;98728.88;;;24.21;41.64
40872;BME280;26591;43.264;26.940;2023-05-21T04:45:54;98729.88;;;24.04;42.62
40872;BME280;26591;43.264;26.940;2023-05-21T04:48:20;98723.06;;;23.54;42.51
40872;BME280;26591;43.264;26.940;2023-05-21T04:50:49;98726.50;;;23.16;44.82
40872;BME280;26591;43.264;26.940;2023-05-21T04:53:16;98728.53;;;22.99;44.77
40872;BME280;26591;43.264;26.940;2023-05-21T04:55:42;98727.19;;;23.01;44.77
40872;BME280;26591;43.264;26.940;2023-05-21T04:58:07;98734.13;;;22.92;44.39
40872;BME280;26591;43.264;26.940;2023-05-21T05:00:37;98726.97;;;22.81;44.70
40872;BME280;26591;43.264;26.940;2023-05-21T05:03:03;98730.91;;;22.95;45.54
40872;BME280;26591;43.264;26.940;2023-05-21T05:05:29;98731.38;;;23.20;44.82
40872;BME280;26591;43.264;26.940;2023-05-21T05:07:55;98727.78;;;23.36;44.04
40872;BME280;26591;43.264;26.940;2023-05-21T05:10:22;98732.66;;;23.77;42.89
40872;BME280;26591;43.264;26.940;2023-05-21T05:12:47;98734.53;;;24.19;42.11
40872;BME280;26591;43.264;26.940;2023-05-21T05:15:13;98728.19;;;24.57;41.04
40872;BME280;26591;43.264;26.940;2023-05-21T05:17:39;98734.69;;;24.61;41.00
40872;BME280;26591;43.264;26.940;2023-05-21T05:20:06;98725.94;;;24.33;41.20
40872;BME280;26591;43.264;26.940;2023-05-21T05:22:32;98729.47;;;24.38;42.03
40872;BME280;26591;43.264;26.940;2023-05-21T05:24:57;98732.94;;;24.23;42.35
40872;BME280;26591;43.264;26.940;2023-05-21T05:27:23;98745.75;;;24.44;41.96
40872;BME280;26591;43.264;26.940;2023-05-21T05:29:48;98735.88;;;24.91;41.53
40872;BME280;26591;43.264;26.940;2023-05-21T05:32:14;98735.13;;;25.57;40.33
40872;BME280;26591;43.264;26.940;2023-05-21T05:34:42;98736.69;;;25.84;39.62
40872;BME280;26591;43.264;26.940;2023-05-21T05:37:07;98733.31;;;26.39;38.00
40872;BME280;26591;43.264;26.940;2023-05-21T05:39:33;98735.56;;;26.16;38.69
40872;BME280;26591;43.264;26.940;2023-05-21T05:42:30;98743.66;;;27.27;37.68
40872;BME280;26591;43.264;26.940;2023-05-21T05:44:55;98739.75;;;26.54;37.11
40872;BME280;26591;43.264;26.940;2023-05-21T05:47:21;98723.97;;;26.56;37.85
40872;BME280;26591;43.264;26.940;2023-05-21T05:49:47;98733.81;;;26.41;36.93
40872;BME280;26591;43.264;26.940;2023-05-21T05:52:12;98741.16;;;26.46;37.60
40872;BME280;26591;43.264;26.940;2023-05-21T05:54:38;98737.97;;;26.28;38.20
40872;BME280;26591;43.264;26.940;2023-05-21T05:57:04;98729.22;;;26.47;37.92
40872;BME280;26591;43.264;26.940;2023-05-21T05:59:29;98740.09;;;26.92;37.38
40872;BME280;26591;43.264;26.940;2023-05-21T06:01:55;98739.97;;;27.47;36.51
40872;BME280;26591;43.264;26.940;2023-05-21T06:04:20;98738.84;;;28.07;36.72
40872;BME280;26591;43.264;26.940;2023-05-21T06:06:46;98738.53;;;28.57;35.74
40872;BME280;26591;43.264;26.940;2023-05-21T06:09:12;98738.53;;;28.57;35.02
40872;BME280;26591;43.264;26.940;2023-05-21T06:11:37;98738.88;;;28.51;34.89
40872;BME280;26591;43.264;26.940;2023-05-21T06:14:03;98743.59;;;28.64;34.40
40872;BME280;26591;43.264;26.940;2023-05-21T06:16:29;98736.81;;;28.18;34.58
40872;BME280;26591;43.264;26.940;2023-05-21T06:18:56;98733.50;;;27.97;35.58
40872;BME280;26591;43.264;26.940;2023-05-21T06:21:21;98734.00;;;27.75;36.10
40872;BME280;26591;43.264;26.940;2023-05-21T06:23:47;98734.50;;;28.06;36.72
40872;BME280;26591;43.264;26.940;2023-05-21T06:26:12;98725.88;;;27.99;36.22
40872;BME280;26591;43.264;26.940;2023-05-21T06:28:38;98723.63;;;27.82;36.37
40872;BME280;26591;43.264;26.940;2023-05-21T06:31:03;98718.47;;;27.51;37.61
40872;BME280;26591;43.264;26.940;2023-05-21T06:33:29;98717.53;;;27.90;37.61
40872;BME280;26591;43.264;26.940;2023-05-21T06:35:54;98706.31;;;27.97;38.12
40872;BME280;26591;43.264;26.940;2023-05-21T06:38:20;98711.41;;;27.79;37.85
40872;BME280;26591;43.264;26.940;2023-05-21T06:40:48;98707.50;;;27.26;36.98
40872;BME280;26591;43.264;26.940;2023-05-21T06:43:17;98703.53;;;27.14;37.57
40872;BME280;26591;43.264;26.940;2023-05-21T06:45:42;98699.72;;;26.80;37.49
40872;BME280;26591;43.264;26.940;2023-05-21T06:48:08;98698.06;;;26.29;37.96
40872;BME280;26591;43.264;26.940;2023-05-21T06:50:33;98690.94;;;25.31;39.05
40872;BME280;26591;43.264;26.940;2023-05-21T06:52:59;98691.78;;;24.90;41.00
40872;BME280;26591;43.264;26.940;2023-05-21T06:55:25;98695.47;;;24.63;40.66
40872;BME280;26591;43.264;26.940;2023-05-21T06:57:56;98702.28;;;24.76;40.51
40872;BME280;26591;43.264;26.940;2023-05-21T07:00:22;98702.09;;;24.19;42.38
40872;BME280;26591;43.264;26.940;2023-05-21T07:02:47;98699.88;;;24.06;42.28
40872;BME280;26591;43.264;26.940;2023-05-21T07:05:13;98706.13;;;24.12;42.74
40872;BME280;26591;43.264;26.940;2023-05-21T07:07:38;98692.97;;;24.41;42.50
40872;BME280;26591;43.264;26.940;2023-05-21T07:10:04;98696.84;;;24.66;42.13
40872;BME280;26591;43.264;26.940;2023-05-21T07:12:30;98687.72;;;24.82;41.22
40872;BME280;26591;43.264;26.940;2023-05-21T07:14:55;98697.44;;;24.89;39.81
40872;BME280;26591;43.264;26.940;2023-05-21T07:17:23;98689.88;;;24.80;39.85
40872;BME280;26591;43.264;26.940;2023-05-21T07:19:49;98691.78;;;25.11;39.22
40872;BME280;26591;43.264;26.940;2023-05-21T07:22:14;98691.25;;;25.45;39.31
40872;BME280;26591;43.264;26.940;2023-05-21T07:24:40;98687.41;;;25.72;37.93
40872;BME280;26591;43.264;26.940;2023-05-21T07:27:05;98685.44;;;25.93;37.95
40872;BME280;26591;43.264;26.940;2023-05-21T07:29:32;98693.69;;;25.52;37.63
40872;BME280;26591;43.264;26.940;2023-05-21T07:31:58;98680.41;;;25.24;39.41
40872;BME280;26591;43.264;26.940;2023-05-21T07:34:24;98682.38;;;26.10;38.25
40872;BME280;26591;43.264;26.940;2023-05-21T07:36:49;98676.78;;;25.91;37.20
40872;BME280;26591;43.264;26.940;2023-05-21T07:39:15;98684.59;;;25.98;38.11
40872;BME280;26591;43.264;26.940;2023-05-21T07:41:43;98675.66;;;26.63;36.77
40872;BME280;26591;43.264;26.940;2023-05-21T07:44:09;98681.78;;;26.34;36.36
40872;BME280;26591;43.264;26.940;2023-05-21T07:46:35;98689.13;;;26.84;35.88
40872;BME280;26591;43.264;26.940;2023-05-21T07:49:01;98690.81;;;27.09;35.98
40872;BME280;26591;43.264;26.940;2023-05-21T07:51:26;98683.94;;;27.51;35.29
40872;BME280;26591;43.264;26.940;2023-05-21T07:53:52;98693.41;;;26.90;35.99
40872;BME280;26591;43.264;26.940;2023-05-21T07:56:18;98690.16;;;26.43;36.04
40872;BME280;26591;43.264;26.940;2023-05-21T07:59:05;98689.00;;;26.49;35.74
40872;BME280;26591;43.264;26.940;2023-05-21T08:01:30;98689.91;;;26.39;35.32
40872;BME280;26591;43.264;26.940;2023-05-21T08:03:58;98691.38;;;26.16;36.12
40872;BME280;26591;43.264;26.940;2023-05-21T08:06:26;98698.78;;;25.79;36.37
40872;BME280;26591;43.264;26.940;2023-05-21T08:08:51;98693.13;;;25.29;36.03
40872;BME280;26591;43.264;26.940;2023-05-21T08:11:18;98705.56;;;25.04;35.81
40872;BME280;26591;43.264;26.940;2023-05-21T08:13:44;98694.72;;;24.78;36.67
40872;BME280;26591;43.264;26.940;2023-05-21T08:16:09;98693.00;;;24.46;36.46
40872;BME280;26591;43.264;26.940;2023-05-21T08:18:35;98690.03;;;24.43;37.00
40872;BME280;26591;43.264;26.940;2023-05-21T08:21:01;98696.06;;;24.71;37.32
40872;BME280;26591;43.264;26.940;2023-05-21T08:23:26;98686.06;;;24.81;37.32
40872;BME280;26591;43.264;26.940;2023-05-21T08:25:52;98683.66;;;25.06;37.72
40872;BME280;26591;43.264;26.940;2023-05-21T08:28:17;98688.13;;;24.48;37.71
40872;BME280;26591;43.264;26.940;2023-05-21T08:30:43;98677.03;;;24.40;38.41
40872;BME280;26591;43.264;26.940;2023-05-21T08:33:08;98679.28;;;25.41;37.53
40872;BME280;26591;43.264;26.940;2023-05-21T08:35:34;98699.06;;;25.62;36.14
40872;BME280;26591;43.264;26.940;2023-05-21T08:38:00;98692.78;;;24.68;35.82
40872;BME280;26591;43.264;26.940;2023-05-21T08:40:25;98696.84;;;24.66;36.53
40872;BME280;26591;43.264;26.940;2023-05-21T08:42:51;98694.41;;;24.59;37.79
40872;BME280;26591;43.264;26.940;2023-05-21T08:45:20;98682.41;;;24.34;37.85
40872;BME280;26591;43.264;26.940;2023-05-21T08:47:46;98691.13;;;24.47;37.08
40872;BME280;26591;43.264;26.940;2023-05-21T08:50:14;98689.34;;;25.04;37.95
40872;BME280;26591;43.264;26.940;2023-05-21T08:52:40;98692.31;;;24.92;37.36
40872;BME280;26591;43.264;26.940;2023-05-21T08:55:07;98686.63;;;24.94;35.55
40872;BME280;26591;43.264;26.940;2023-05-21T08:57:33;98685.75;;;24.67;36.83
40872;BME280;26591;43.264;26.940;2023-05-21T08:59:59;98679.59;;;25.29;36.78
40872;BME280;26591;43.264;26.940;2023-05-21T09:02:26;98684.97;;;25.65;36.80
40872;BME280;26591;43.264;26.940;2023-05-21T09:04:54;98686.75;;;26.06;35.97
40872;BME280;26591;43.264;26.940;2023-05-21T09:07:25;98682.72;;;25.98;35.52
40872;BME280;26591;43.264;26.940;2023-05-21T09:09:55;98694.19;;;25.69;36.18
40872;BME280;26591;43.264;26.940;2023-05-21T09:12:22;98680.84;;;25.94;36.17
40872;BME280;26591;43.264;26.940;2023-05-21T09:14:49;98700.88;;;26.03;35.47
40872;BME280;26591;43.264;26.940;2023-05-21T09:17:15;98692.59;;;25.58;36.60
40872;BME280;26591;43.264;26.940;2023-05-21T09:20:03;98693.94;;;25.35;37.65
40872;BME280;26591;43.264;26.940;2023-05-21T09:22:48;98682.81;;;24.79;38.72
40872;BME280;26591;43.264;26.940;2023-05-21T09:25:22;98678.00;;;25.43;37.74
40872;BME280;26591;43.264;26.940;2023-05-21T09:27:49;98683.38;;;25.28;37.99
40872;BME280;26591;43.264;26.940;2023-05-21T09:30:16;98682.28;;;24.93;38.04
40872;BME280;26591;43.264;26.940;2023-05-21T09:32:44;98679.31;;;25.31;36.04
40872;BME280;26591;43.264;26.940;2023-05-21T09:35:14;98675.00;;;25.04;36.95
40872;BME280;26591;43.264;26.940;2023-05-21T09:37:40;98684.19;;;25.08;37.45
40872;BME280;26591;43.264;26.940;2023-05-21T09:40:44;98674.97;;;25.66;37.92
40872;BME280;26591;43.264;26.940;2023-05-21T09:43:16;98680.00;;;25.98;35.61
40872;BME280;26591;43.264;26.940;2023-05-21T09:45:52;98678.53;;;26.32;35.41
40872;BME280;26591;43.264;26.940;2023-05-21T09:48:38;98673.44;;;26.10;35.91
40872;BME280;26591;43.264;26.940;2023-05-21T09:51:25;98681.63;;;25.99;35.72
40872;BME280;26591;43.264;26.940;2023-05-21T09:53:55;98688.47;;;25.71;36.56
40872;BME280;26591;43.264;26.940;2023-05-21T09:56:27;98690.94;;;25.62;36.44
40872;BME280;26591;43.264;26.940;2023-05-21T09:58:56;98688.78;;;25.33;36.50
40872;BME280;26591;43.264;26.940;2023-05-21T10:01:25;98702.59;;;24.90;34.63
40872;BME280;26591;43.264;26.940;2023-05-21T10:03:56;98697.25;;;24.21;35.34
40872;BME280;26591;43.264;26.940;2023-05-21T10:06:27;98692.78;;;24.58;35.32
40872;BME280;26591;43.264;26.940;2023-05-21T10:08:54;98706.59;;;24.72;35.33
40872;BME280;26591;43.264;26.940;2023-05-21T10:11:25;98691.22;;;25.09;33.73
40872;BME280;26591;43.264;26.940;2023-05-21T10:14:00;98722.91;;;24.98;33.99
40872;BME280;26591;43.264;26.940;2023-05-21T10:16:29;98683.34;;;24.76;34.21
40872;BME280;26591;43.264;26.940;2023-05-21T10:18:57;98702.88;;;24.99;35.31
40872;BME280;26591;43.264;26.940;2023-05-21T10:21:24;98668.22;;;25.22;35.23
40872;BME280;26591;43.264;26.940;2023-05-21T10:23:50;98694.19;;;24.92;35.16
40872;BME280;26591;43.264;26.940;2023-05-21T10:26:18;98709.09;;;25.05;34.70
40872;BME280;26591;43.264;26.940;2023-05-21T10:28:46;98691.72;;;25.78;35.87
40872;BME280;26591;43.264;26.940;2023-05-21T10:31:13;98698.00;;;25.63;34.95
40872;BME280;26591;43.264;26.940;2023-05-21T10:33:40;98701.22;;;25.65;34.28
40872;BME280;26591;43.264;26.940;2023-05-21T10:36:06;98698.53;;;25.03;35.84
40872;BME280;26591;43.264;26.940;2023-05-21T10:38:32;98701.81;;;25.10;36.56
40872;BME280;26591;43.264;26.940;2023-05-21T10:40:58;98699.34;;;25.09;36.20
40872;BME280;26591;43.264;26.940;2023-05-21T10:43:55;98697.19;;;25.16;36.22
40872;BME280;26591;43.264;26.940;2023-05-21T10:52:21;98695.25;;;24.86;33.01
40872;BME280;26591;43.264;26.940;2023-05-21T10:57:52;98724.75;;;24.82;32.93
40872;BME280;26591;43.264;26.940;2023-05-21T11:00:23;98699.31;;;24.83;34.07
40872;BME280;26591;43.264;26.940;2023-05-21T11:02:50;98707.19;;;24.90;33.84
40872;BME280;26591;43.264;26.940;2023-05-21T11:05:37;98707.75;;;25.18;33.27
40872;BME280;26591;43.264;26.940;2023-05-21T11:08:04;98699.38;;;25.19;34.25
40872;BME280;26591;43.264;26.940;2023-05-21T11:10:39;98699.13;;;25.41;34.57
40872;BME280;26591;43.264;26.940;2023-05-21T11:13:13;98701.22;;;25.65;34.87
40872;BME280;26591;43.264;26.940;2023-05-21T11:21:12;98705.03;;;24.97;34.84
40872;BME280;26591;43.264;26.940;2023-05-21T11:23:51;98705.53;;;24.73;35.02
40872;BME280;26591;43.264;26.940;2023-05-21T11:26:24;98693.81;;;24.47;35.82
40872;BME280;26591;43.264;26.940;2023-05-21T11:31:32;98692.56;;;25.17;34.86
40872;BME280;26591;43.264;26.940;2023-05-21T11:34:21;98691.97;;;25.87;34.37
40872;BME280;26591;43.264;26.940;2023-05-21T11:40:22;98703.69;;;25.10;34.50
40872;BME280;26591;43.264;26.940;2023-05-21T11:42:52;98693.13;;;25.24;35.66
40872;BME280;26591;43.264;26.940;2023-05-21T11:45:19;98698.00;;;25.68;33.73
40872;BME280;26591;43.264;26.940;2023-05-21T11:47:50;98692.56;;;25.17;35.31
40872;BME280;26591;43.264;26.940;2023-05-21T11:50:17;98693.66;;;25.00;35.55
40872;BME280;26591;43.264;26.940;2023-05-21T11:52:43;98678.50;;;24.78;34.88
40872;BME280;26591;43.264;26.940;2023-05-21T11:55:09;98677.97;;;24.92;35.16
40872;BME280;26591;43.264;26.940;2023-05-21T11:57:36;98669.28;;;25.16;34.16
40872;BME280;26591;43.264;26.940;2023-05-21T12:00:02;98669.81;;;25.38;34.16
40872;BME280;26591;43.264;26.940;2023-05-21T12:02:36;98653.00;;;25.67;34.84
40872;BME280;26591;43.264;26.940;2023-05-21T12:05:05;98656.03;;;25.50;34.54
40872;BME280;26591;43.264;26.940;2023-05-21T12:07:31;98665.47;;;25.63;34.44
40872;BME280;26591;43.264;26.940;2023-05-21T12:09:57;98650.31;;;25.36;35.29
40872;BME280;26591;43.264;26.940;2023-05-21T12:12:26;98645.47;;;25.18;34.22
40872;BME280;26591;43.264;26.940;2023-05-21T12:14:53;98648.72;;;25.46;34.93
40872;BME280;26591;43.264;26.940;2023-05-21T12:17:23;98648.66;;;25.61;33.15
40872;BME280;26591;43.264;26.940;2023-05-21T12:19:53;98648.38;;;25.78;33.34
40872;BME280;26591;43.264;26.940;2023-05-21T12:22:19;98645.16;;;25.40;32.99
40872;BME280;26591;43.264;26.940;2023-05-21T12:24:45;98640.84;;;25.65;32.16
40872;BME280;26591;43.264;26.940;2023-05-21T12:27:13;98663.34;;;25.44;31.76
40872;BME280;26591;43.264;26.940;2023-05-21T12:29:45;98641.63;;;25.65;32.93
40872;BME280;26591;43.264;26.940;2023-05-21T12:32:13;98646.00;;;25.56;33.96
40872;BME280;26591;43.264;26.940;2023-05-21T12:34:45;98651.63;;;25.75;33.48
40872;BME280;26591;43.264;26.940;2023-05-21T12:37:15;98653.88;;;25.06;33.61
40872;BME280;26591;43.264;26.940;2023-05-21T12:39:46;98656.28;;;25.33;33.86
40872;BME280;26591;43.264;26.940;2023-05-21T12:42:13;98653.00;;;25.67;33.62
40872;BME280;26591;43.264;26.940;2023-05-21T12:44:42;98660.91;;;25.48;33.77
40872;BME280;26591;43.264;26.940;2023-05-21T12:47:24;98658.47;;;25.16;33.15
40872;BME280;26591;43.264;26.940;2023-05-21T12:49:58;98675.53;;;24.75;33.31
40872;BME280;26591;43.264;26.940;2023-05-21T12:52:25;98659.41;;;24.27;33.73
40872;BME280;26591;43.264;26.940;2023-05-21T12:54:55;98656.75;;;24.47;34.22
40872;BME280;26591;43.264;26.940;2023-05-21T12:57:24;98682.75;;;24.59;33.69
40872;BME280;26591;43.264;26.940;2023-05-21T12:59:52;98665.63;;;24.27;35.01
40872;BME280;26591;43.264;26.940;2023-05-21T13:02:29;98687.97;;;24.02;35.59
40872;BME280;26591;43.264;26.940;2023-05-21T13:05:03;98659.38;;;24.16;35.41
40872;BME280;26591;43.264;26.940;2023-05-21T13:07:30;98667.00;;;24.25;35.64
40872;BME280;26591;43.264;26.940;2023-05-21T13:09:56;98665.16;;;23.82;35.79
40872;BME280;26591;43.264;26.940;2023-05-21T13:12:23;98652.59;;;23.60;36.50
40872;BME280;26591;43.264;26.940;2023-05-21T13:14:51;98656.66;;;23.63;37.30
40872;BME280;26591;43.264;26.940;2023-05-21T13:17:18;98652.88;;;24.07;37.05